Terminal Aerodrome Forecast
Issued by NWS Wilmington, OH

Current Version | Previous Version | Graphics & Text | Print | Product List | Glossary On
Versions: 1 2 3 4 5 6 7 8 9 10 11 12 13 14 15 16 17 18 19 20
000
FTUS41 KILN 270500 RRA
TAFCVG
TAF
KCVG 270545Z 2706/2812 16003KT P6SM SCT200
     FM270800 VRB02KT 5SM BR BKN200
     FM271300 31006KT P6SM BKN150
     FM271600 33007KT P6SM VCTS BKN050CB
     FM272200 02006KT P6SM BKN100
     FM280700 05005KT P6SM SCT050 BKN200=

USA.gov is the U.S. government's official web portal to all federal, state and local government web resources and services.